Nashville, TN (JWN)

Redbird FMX


Given the close proximity to downtown Nashville, Tennessee, John Tune (JWN) is a great place for the general aviation enthusiast or for someone learning how to fly. Wings of Eagles Aviation’s office is located in Hangar 1, and is accessible from the road or the ramp. The FBO is open 24 hours a day 7 days a week so there will always be someone available for help or fuel.

Address:
210 Tune Airport Dr.
Nashville, TN 37209

Phone: (615) 979-9222

Business Hours:
Monday-Sunday 7a-10p


NOAA Weather

Nashville, Nashville International Airport, TN

Last Updated on Feb 12 2016, 5:53 pm CST

Current Conditions: Mostly Cloudy

NOAA Icon

Temp: 37°F

Wind: NW at 15mph

Humidity: 57%

Windchill: 28°F

Your 5-Day Forecast at a Glance

Available data for KBNA from the past hour

taf

  • KBNA 122327Z 1300/1324 34010G17KT P6SM BKN035 FM130200 33009G16KT P6SM BKN035 FM131200 36008KT P6SM BKN250

pireps 60sm

  • BNA UA /OV BNA090015/TM 2337/FL050/TP M20P/SK BKN043-TOP060/TA -3/IC LGT RIME